Accueil
METAR-TAF:

METAR-TAF

Aéroports :

Clemson, Caroline du Sud, États-Unis

latitude: 34-40-20N, longitude: 082-52-53W, altitude: 272 m

Observation

Le bulletin a été fait il y a 49 minutes, à 11:54 UTC
Vent calme
Température 12°C
Humidité 82%
Pression 1016 hPa
Visibilité: 16.1 km
Nuages fragmentés à une hauteur de 11000 ft

METAR: KCEU 041154Z AUTO 00000KT 10SM BKN110 12/09 A2999 RMK AO2 SLP151 T01170089 10161 20117 53018

Heure: 08:43 (12:43 UTC)


TAF: absent

Observations et prévisions météorologiques de plus de 4000 aéroports (messages METAR et TAF).

Les stations disponibles sont représentées par des disques jaunes et rouges sur la carte.

Passer la souris dessus pour voir le nom de la station.

Cliquer dessus pour voir les observations et prévisions météorologiques.

Pour changer de carte: cliquez sur les boutons verts avec une croix noire pour zoomer, sur le bouton vert avec un tiret pour effectuer un zoom arrière, ou sur les flèches vertes pour les cartes adjacentes.


METAR-TAF: